createdAt,value
2019-02-21T00:03:57.963Z,74.67
2019-02-21T00:14:03.716Z,65.47
2019-02-21T00:19:06.181Z,62.08
2019-02-21T00:24:08.695Z,70.03
2019-02-21T00:29:11.228Z,70.30
2019-02-21T00:34:13.781Z,75.35
2019-02-21T00:39:16.316Z,73.95
2019-02-21T00:49:20.969Z,66.57
2019-02-21T00:59:25.951Z,64.80
2019-02-21T01:04:28.467Z,67.10
2019-02-21T01:09:30.991Z,56.60
2019-02-21T01:14:33.512Z,63.25
2019-02-21T01:19:36.035Z,50.73
2019-02-21T01:24:38.553Z,41.98
2019-02-21T01:34:43.202Z,43.40
2019-02-21T01:44:47.823Z,39.47
2019-02-21T01:49:50.339Z,47.73
2019-02-21T01:54:52.858Z,49.85
2019-02-21T01:59:55.387Z,43.30
2019-02-21T02:10:00.025Z,42.60
2019-02-21T02:15:02.688Z,41.15
2019-02-21T02:20:05.695Z,44.03
2019-02-21T02:25:08.204Z,45.40
2019-02-21T02:35:13.339Z,46.20
2019-02-21T02:40:15.848Z,53.87
2019-02-21T02:45:18.383Z,58.08
2019-02-21T02:50:20.917Z,52.50
2019-02-21T02:55:23.429Z,50.33
2019-02-21T03:05:28.334Z,49.48
2019-02-21T03:10:30.881Z,45.63
2019-02-21T03:20:35.518Z,42.53
2019-02-21T03:30:40.476Z,43.40
2019-02-21T03:35:43.090Z,47.90
2019-02-21T03:45:47.730Z,41.90
2019-02-21T03:55:52.489Z,46.00
2019-02-21T04:00:55.008Z,49.93
2019-02-21T04:10:59.643Z,42.03
2019-02-21T04:21:04.881Z,38.50
2019-02-21T04:31:09.532Z,32.63
2019-02-21T04:41:14.203Z,37.73
2019-02-21T04:51:18.881Z,41.53
2019-02-21T05:01:23.521Z,38.97
2019-02-21T05:11:28.118Z,36.10
2019-02-21T05:21:32.749Z,86.30
2019-02-21T05:32:09.926Z,43.13
2019-02-21T05:37:32.113Z,50.63
2019-02-21T05:43:00.028Z,52.60
2019-02-21T05:48:33.975Z,62.03
2019-02-21T05:54:12.770Z,59.57
2019-02-21T05:59:43.919Z,63.50
2019-02-21T06:05:08.899Z,56.50
2019-02-21T06:10:21.608Z,64.33
2019-02-21T06:20:45.919Z,67.87
2019-02-21T06:26:08.974Z,68.97
2019-02-21T06:31:14.881Z,76.37
2019-02-21T06:36:17.421Z,70.85
2019-02-21T06:46:22.101Z,80.07
2019-02-21T06:51:24.628Z,91.63
2019-02-21T07:01:29.768Z,88.93
2019-02-21T07:06:32.649Z,80.75
2019-02-21T07:11:35.184Z,76.87
2019-02-21T07:16:37.706Z,62.95
2019-02-21T07:21:40.239Z,64.53
2019-02-21T07:31:45.477Z,62.88
2019-02-21T07:36:49.987Z,63.35
2019-02-21T07:41:52.443Z,65.12
2019-02-21T07:51:57.103Z,62.30
2019-02-21T08:02:03.621Z,66.85
2019-02-21T08:12:08.248Z,78.70
2019-02-21T08:17:10.841Z,66.67
2019-02-21T08:22:15.243Z,65.15
2019-02-21T08:32:24.609Z,58.07
2019-02-21T08:37:27.140Z,48.50
2019-02-21T08:42:29.713Z,52.30
2019-02-21T08:52:34.317Z,44.95
2019-02-21T08:57:36.845Z,45.88
2019-02-21T09:02:41.292Z,47.55
2019-02-21T09:07:46.269Z,47.43
2019-02-21T09:12:48.757Z,44.83
2019-02-21T09:17:54.004Z,38.55
2019-02-21T09:22:56.243Z,41.75
2019-02-21T09:33:03.471Z,35.48
2019-02-21T09:43:08.107Z,33.83
2019-02-21T09:53:14.551Z,33.73
2019-02-21T09:58:17.079Z,31.77
2019-02-21T10:03:19.613Z,32.50
2019-02-21T10:13:24.638Z,26.45
2019-02-21T10:18:27.181Z,26.40
2019-02-21T10:28:32.609Z,24.27
2019-02-21T10:33:35.143Z,25.55
2019-02-21T10:38:37.834Z,23.47
2019-02-21T10:48:42.486Z,24.83
2019-02-21T10:53:45.043Z,19.35
2019-02-21T11:03:49.664Z,19.60
2019-02-21T11:13:54.293Z,24.30
2019-02-21T11:18:57.643Z,24.85
2019-02-21T11:24:00.166Z,27.15
2019-02-21T11:29:02.730Z,27.45
2019-02-21T11:34:05.281Z,33.15
2019-02-21T11:39:08.149Z,31.05
2019-02-21T11:44:10.739Z,34.85
2019-02-21T11:49:13.263Z,36.85
2019-02-21T11:54:26.215Z,45.52
2019-02-21T11:59:20.269Z,42.03
2019-02-21T12:04:24.419Z,47.25
2019-02-21T12:09:27.391Z,36.30
2019-02-21T12:14:30.018Z,37.90
2019-02-21T12:19:32.540Z,35.88
2019-02-21T12:24:35.279Z,34.03
2019-02-21T12:29:37.823Z,34.75
2019-02-21T12:34:40.359Z,30.88
2019-02-21T12:39:43.002Z,30.12
2019-02-21T12:44:47.795Z,29.02
2019-02-21T12:49:52.044Z,25.57
2019-02-21T12:54:54.539Z,24.20
2019-02-21T12:59:57.152Z,24.02
2019-02-21T13:05:00.053Z,20.35
2019-02-21T13:10:02.769Z,22.27
2019-02-21T13:15:06.414Z,20.40
2019-02-21T13:20:09.626Z,22.55
2019-02-21T13:25:15.054Z,22.45
2019-02-21T13:30:17.579Z,19.55
2019-02-21T13:35:20.125Z,18.87
2019-02-21T13:40:22.653Z,24.75
2019-02-21T13:45:25.256Z,19.65
2019-02-21T13:50:27.817Z,17.20
2019-02-21T13:55:30.346Z,19.73
2019-02-21T14:00:32.880Z,19.60
2019-02-21T14:05:35.397Z,19.67
2019-02-21T14:10:37.995Z,16.50
2019-02-21T14:15:40.518Z,23.57
2019-02-21T14:20:45.611Z,20.72
2019-02-21T14:25:47.783Z,20.30
2019-02-21T14:30:50.344Z,18.55
2019-02-21T14:35:52.871Z,19.30
2019-02-21T14:40:55.534Z,18.67
2019-02-21T14:45:58.113Z,17.27
2019-02-21T14:51:00.642Z,19.00
2019-02-21T14:56:03.188Z,21.90
2019-02-21T15:01:05.754Z,17.02
2019-02-21T15:06:10.077Z,21.57
2019-02-21T15:11:12.604Z,19.37
2019-02-21T15:16:15.145Z,19.55
2019-02-21T15:21:17.680Z,17.73
2019-02-21T15:26:38.809Z,15.28
2019-02-21T15:32:10.247Z,20.75
2019-02-21T15:42:42.724Z,19.37
2019-02-21T15:48:03.521Z,23.80
2019-02-21T15:53:24.393Z,20.88
2019-02-21T15:58:45.243Z,18.45
2019-02-21T16:03:47.753Z,19.52
2019-02-21T16:08:50.289Z,20.43
2019-02-21T16:14:02.649Z,21.30
2019-02-21T16:18:58.878Z,21.12
2019-02-21T16:24:01.675Z,24.07
2019-02-21T16:29:04.196Z,21.85
2019-02-21T16:34:09.180Z,28.32
2019-02-21T16:39:11.243Z,23.35
2019-02-21T16:44:13.812Z,25.68
2019-02-21T16:49:16.360Z,23.05
2019-02-21T16:54:18.863Z,22.85
2019-02-21T16:59:21.402Z,30.27
2019-02-21T17:04:23.963Z,29.20
2019-02-21T17:09:26.500Z,25.75
2019-02-21T17:14:29.023Z,21.30
2019-02-21T17:19:31.545Z,33.90
2019-02-21T17:24:34.099Z,29.30
2019-02-21T17:29:36.621Z,25.52
2019-02-21T17:34:39.143Z,20.75
2019-02-21T17:39:41.775Z,25.95
2019-02-21T17:44:44.331Z,25.82
2019-02-21T17:49:46.871Z,28.07
2019-02-21T17:54:49.404Z,40.20
2019-02-21T17:59:51.955Z,32.05
2019-02-21T18:04:54.481Z,34.78
2019-02-21T18:14:59.205Z,36.23
2019-02-21T18:20:01.841Z,35.40
2019-02-21T18:25:07.032Z,39.13
2019-02-21T18:30:11.176Z,46.68
2019-02-21T18:35:13.702Z,51.40
2019-02-21T18:45:20.546Z,51.25
2019-02-21T18:50:23.071Z,45.63
2019-02-21T19:00:27.834Z,49.13
2019-02-21T19:05:36.036Z,47.65
2019-02-21T19:10:34.797Z,50.83
2019-02-21T19:20:40.220Z,58.55
2019-02-21T19:25:44.162Z,75.85
2019-02-21T19:30:53.577Z,91.90
2019-02-21T19:35:56.109Z,57.78
2019-02-21T19:46:00.768Z,52.87
2019-02-21T19:56:05.493Z,56.77
2019-02-21T20:06:10.307Z,50.03
2019-02-21T20:16:14.980Z,54.53
2019-02-21T20:26:19.638Z,64.07
2019-02-21T20:31:22.139Z,60.17
2019-02-21T20:36:25.289Z,55.90
2019-02-21T20:41:27.838Z,46.77
2019-02-21T20:46:30.433Z,56.18
2019-02-21T21:01:38.089Z,95.72
2019-02-21T21:06:40.619Z,124.27
2019-02-21T21:16:45.269Z,43.23
2019-02-21T21:21:47.932Z,36.03
2019-02-21T21:26:50.555Z,63.63
2019-02-21T21:36:55.251Z,49.83
2019-02-21T21:46:59.958Z,51.87
2019-02-21T21:52:02.489Z,49.77
2019-02-21T21:57:05.049Z,43.80
2019-02-21T22:07:09.861Z,40.37
2019-02-21T22:17:14.588Z,35.67
2019-02-21T22:22:17.118Z,39.50
2019-02-21T22:27:20.155Z,41.48
2019-02-21T22:32:23.540Z,37.55
2019-02-21T22:37:26.053Z,43.92
2019-02-21T22:42:28.582Z,43.40
2019-02-21T22:47:31.119Z,110.35
2019-02-21T22:52:33.652Z,70.83
2019-02-21T22:57:36.265Z,76.20
2019-02-21T23:08:20.158Z,138.72
2019-02-21T23:13:22.695Z,82.33
2019-02-21T23:18:25.224Z,85.55
2019-02-21T23:23:28.039Z,89.87
2019-02-21T23:28:30.575Z,65.00
2019-02-21T23:33:35.782Z,53.17
2019-02-21T23:38:38.303Z,71.72
2019-02-21T23:43:40.822Z,73.92
2019-02-21T23:48:43.359Z,66.30
2019-02-21T23:53:46.187Z,62.20
2019-02-21T23:58:48.718Z,62.17
